N7069G KMKC-KMCI
Flight info
| Callsign | N7069G |
|---|---|
| Flight time | N/A |
| Altitude | VFR/025 |
| Route | |
| Aircraft | C209/L-VGD/C |
Departure
| Time | 2026-04-30 21:28 |
|---|---|
| Airport | Charles B. Wheeler Downtown Airport (KMKC) |
Arrival
| Time | N/A |
|---|---|
| Airport | Kansas City International Airport (KMCI) |
| Time | Latitude | Longitude | Altitude | Speed | Heading |
|---|---|---|---|---|---|
| 2026-04-30 21:23 | 39.12099 | -94.59932 | 754 ft | 0 kts | 103° |
| 2026-04-30 21:26 | 39.11794 | -94.59904 | 755 ft | 37 kts | 170° |
| 2026-04-30 21:26 | 39.11725 | -94.59892 | 752 ft | 0 kts | 167° |
| 2026-04-30 21:27 | 39.11677 | -94.59858 | 753 ft | 27 kts | 129° |
| 2026-04-30 21:27 | 39.11756 | -94.59727 | 755 ft | 36 kts | 36° |
| 2026-04-30 21:27 | 39.12035 | -94.59480 | 784 ft | 57 kts | 355° |
| 2026-04-30 21:28 | 39.13029 | -94.58810 | 1511 ft | 103 kts | 324° |
| 2026-04-30 21:28 | 39.13443 | -94.59562 | 2141 ft | 91 kts | 300° |
| 2026-04-30 21:28 | 39.13712 | -94.60281 | 749 ft | 0 kts | 247° |
| 2026-04-30 21:29 | 39.13626 | -94.60461 | 748 ft | 43 kts | 216° |
| 2026-04-30 21:29 | 39.13733 | -94.59576 | 2570 ft | 135 kts | 338° |
| 2026-04-30 21:30 | 39.14327 | -94.61798 | 2631 ft | 130 kts | 299° |
| 2026-04-30 21:31 | 39.16539 | -94.63637 | 2969 ft | 127 kts | 322° |
| 2026-04-30 21:31 | 39.17799 | -94.64673 | 3119 ft | 91 kts | 330° |
| 2026-04-30 21:32 | 39.19081 | -94.65756 | 2513 ft | 145 kts | 326° |
| 2026-04-30 21:32 | 39.19580 | -94.66545 | 2375 ft | 134 kts | 301° |
| 2026-04-30 21:32 | 39.20221 | -94.67169 | 2798 ft | 121 kts | 342° |
| 2026-04-30 21:32 | 39.21002 | -94.67665 | 2712 ft | 117 kts | 327° |
| 2026-04-30 21:33 | 39.21684 | -94.68121 | 2771 ft | 108 kts | 332° |
| 2026-04-30 21:33 | 39.23100 | -94.68866 | 2580 ft | 108 kts | 331° |
| 2026-04-30 21:33 | 39.23770 | -94.69322 | 2539 ft | 109 kts | 328° |
| 2026-04-30 21:34 | 39.24454 | -94.69778 | 2531 ft | 111 kts | 328° |
| 2026-04-30 21:34 | 39.25698 | -94.70839 | 2512 ft | 108 kts | 323° |
| 2026-04-30 21:34 | 39.26313 | -94.71350 | 2370 ft | 104 kts | 325° |
| 2026-04-30 21:35 | 39.26910 | -94.71727 | 2362 ft | 88 kts | 338° |